SLVRSVMI

Guest
Details From SLVR - VIRU VIRU INTL
To SVMI - Caracas Simon Bolivar Intl
Flight Number -
Tags decoded
Created
Modified
Stats Distance 1,719 nm / 3,184 km
Max Altitude 0 ft / 0 m
Waypoints 6
Social Downloads 3
Likes 0
Share VATSIM

Download

Looking for another format? Having issues loading an existing format? Contact us
Advertisement - Login to hide

Notes

Requested: SLVR SEDMA UL322 VAROM UL797 DAVEX UL216 MIQ SVMI Unmatched points: SEDMA UL322 VAROM UL797

Route

SLVR DAVEX UL216 MIQ SVMI

ID Type Via Altitude Latitude Longitude Leg Dist Tot Dist Heading (true) Name
O SLVR APT - 0 ft / 0 m -17.64476˚ -63.13536˚ - 0 nm - VIRU VIRU INTL
DAVEX FIX - 0 ft / 0 m 8.35667˚ -67.37139˚ 1581 nm 1581 nm 351° / 351° -
SSB NDB UL216 (AWY-HI) 0 ft / 0 m 9.95919˚ -67.15092˚ 97 nm 1678 nm 8° / 8° SAN SEBASTIAN NDB
ALTOS FIX UL216 (AWY-HI) 0 ft / 0 m 10.39308˚ -67.04203˚ 26 nm 1705 nm 14° / 14° -
MIQ NDB UL216 (AWY-HI) 0 ft / 0 m 10.60814˚ -66.98581˚ 13 nm 1718 nm 14° / 14° MAIQUETIA NDB
O SVMI APT - 0 ft / 0 m 10.60312˚ -66.99059˚ 0 nm 1719 nm 223° / 223° Caracas Simon Bolivar Intl

Altitude Profile

Advertisement - Login to hide

Weather


0- 5 10 15 20 25 30 35+ Temperature / ° C

Clouds and Precipitation
Forecast for 2017-12-12 18:00 UTC. Updated an hour ago

Ground ~20,000 ft ~40,000 ft Winds

SLVR

Details ICAO SLVR (VVI)
Name VIRU VIRU INTL
Region Bolivia
Timezone America/La_Paz (UTC-4.0)
Stats Elevation 1,225 ft / 373 m (AMSL)
Location -17.644755° -63.135362°
Runways 1
Magnetic Variation 11.891° W

METAR

SLVR 121600Z 35004KT 9999 FEW023 FEW025TCU 33/19 Q1010

Decode

TAF

Not found

Departure Runways

ID Width Length Bearing (true) Bearing (mag) Surface Threshold Offset Overrun Length
16 148 ft / 45 m 11,519 ft / 3,511 m 147.35° 159.24° Concrete 0 ft / 0 m 197 ft / 60 m
34 148 ft / 45 m 11,519 ft / 3,511 m 327.34° 339.23° Concrete 0 ft / 0 m 197 ft / 60 m

SVMI

Details ICAO SVMI (CCS)
Name Caracas Simon Bolivar Intl
Region Venezuela
Timezone America/Caracas (UTC-4.0)
Stats Elevation 235 ft / 72 m (AMSL)
Location 10.603119° -66.990585°
Runways 2
Magnetic Variation 12.288° W

METAR

SVMI 121602Z 02005KT 9999 FEW016 30/21 Q1011

Decode

TAF

Not found

Destination Runways

ID Width Length Bearing (true) Bearing (mag) Surface Threshold Offset Overrun Length
09 145 ft / 44 m 9,825 ft / 2,995 m 75.92° 88.21° Asphalt 0 ft / 0 m 0 ft / 0 m
10 148 ft / 45 m 11,472 ft / 3,497 m 88.14° 100.43° Asphalt 0 ft / 0 m 200 ft / 61 m
27 145 ft / 44 m 9,825 ft / 2,995 m 255.92° 268.21° Asphalt 0 ft / 0 m 0 ft / 0 m
28 148 ft / 45 m 11,472 ft / 3,497 m 268.15° 280.44° Asphalt 0 ft / 0 m 200 ft / 61 m

Approach Navaids

Runway Type Ident Frequency Range Bearing (true) Bearing (mag) Slope Elevation
10 Localiser IMIQ 110.10 MHz 18 nm / 33 km 87.90° 100.19° - 235 ft / 72 m (AMSL)
10 Glidescope IMIQ 110.10 MHz 10 nm / 19 km 88.14° 100.43° 3.00° 235 ft / 72 m (AMSL)
10 DME IMIQ 110.10 MHz 18 nm / 33 km - - - 235 ft / 72 m (AMSL)

Popular Alternatives